Rechercher aéroport 
image banner adimage banner adimage banner ad
image banner ad

D83 - Boonville

Situé à Boonville, United States

ICAO - D83, IATA -

Données fournies par Airmate  

Information générale

Coordonnées: N39°0'50" W123°22'54"
Élévation : 379 feet MSL.
Variation magnétique : 17° East
Voir autres Aéroports à California

Données opérationnelles

Special qualification required
Heure actuelle UTC:
Heure actuelle locale:
Météo à : KUKI - Ukiah Muni ( 20 km )
METAR: KUKI 251056Z AUTO 15003KT 10SM CLR 17/09 A2992 RMK AO2 SLP123 T01670089
TAF: KUKI 250532Z 2506/2606 VRB02KT P6SM SKC FM252200 18006KT P6SM SKC
Voir NOTAMs / SUP AIP / TFR affectant cet aéroport [VIEW]
Fréquences de communication: [VIEW]

Pistes:

Identifiant RWYQFULongueur (ft)Largeur (ft)SurfaceLDA (ft)
13283850ASPH
31283850ASPH

Coordonnées de l'aéroport

Adresse: Boonville United States

Vue satellite de D83